Time;durP1;ratioP1;P1;durP2;ratioP2;P2;SDS_P1;SDS_P2;PMS_P1;PMS_P2;Temp;Humidity;BMP_temperature;BMP_pressure;BME280_temperature;BME280_humidity;BME280_pressure;Samples;Min_cycle;Max_cycle;Signal;HPM_P1;HPM_P2
2022/12/22 16:57:55;;;;;;;101.45;37.30;;;;;;;;;;5071289;23;20055;-46
2022/12/22 17:00:23;;;;;;;129.18;38.80;;;;;;;;;;4864880;29;20057;-49
2022/12/22 17:02:52;;;;;;;113.18;38.45;;;;;;;;;;4882347;29;20041;-46
2022/12/22 17:05:25;;;;;;;98.78;36.92;;;;;;;;;;4882619;29;20145;-48
2022/12/22 17:07:54;;;;;;;90.35;35.30;;;;;;;;;;4874831;29;20084;-46
2022/12/22 17:10:21;;;;;;;93.75;39.13;;;;;;;;;;4881410;29;20060;-47
2022/12/22 17:12:48;;;;;;;117.45;41.35;;;;;;;;;;4852295;29;20132;-46
2022/12/22 17:15:20;;;;;;;100.70;37.47;;;;;;;;;;4867484;29;20140;-47
2022/12/22 17:17:47;;;;;;;85.18;33.97;;;;;;;;;;4867794;29;20083;-50
2022/12/22 17:20:15;;;;;;;99.25;38.42;;;;;;;;;;4883901;29;20138;-47
2022/12/22 17:22:47;;;;;;;89.55;36.22;;;;;;;;;;4851255;29;20044;-47
2022/12/22 17:25:20;;;;;;;85.63;35.03;;;;;;;;;;4868839;29;20132;-50
2022/12/22 17:27:46;;;;;;;88.95;36.33;;;;;;;;;;4884528;29;20048;-49
2022/12/22 17:30:21;;;;;;;93.28;36.33;;;;;;;;;;4867407;29;20108;-48
2022/12/22 17:32:47;;;;;;;114.90;39.08;;;;;;;;;;4848141;29;20574;-46
2022/12/22 17:35:15;;;;;;;89.93;36.35;;;;;;;;;;4865042;29;20045;-47
2022/12/22 17:37:43;;;;;;;86.97;38.40;;;;;;;;;;4868837;29;20080;-48
2022/12/22 17:40:14;;;;;;;110.35;38.10;;;;;;;;;;4862103;29;20057;-50
2022/12/22 17:42:41;;;;;;;103.22;39.15;;;;;;;;;;4877057;29;20042;-50
2022/12/22 17:45:17;;;;;;;98.97;38.53;;;;;;;;;;4867330;29;20055;-50
2022/12/22 17:47:43;;;;;;;91.85;37.55;;;;;;;;;;4865723;29;20052;-49
2022/12/22 17:50:14;;;;;;;76.88;34.60;;;;;;;;;;4880760;29;20060;-49
2022/12/22 17:52:41;;;;;;;95.70;36.67;;;;;;;;;;4862730;29;20132;-47
2022/12/22 17:55:22;;;;;;;115.97;39.22;;;;;;;;;;4867859;29;20143;-47
2022/12/22 17:58:13;;;;;;;88.80;34.60;;;;;;;;;;4882146;29;20167;-47
2022/12/22 18:00:40;;;;;;;104.18;39.42;;;;;;;;;;4883107;29;20037;-47
2022/12/22 18:03:10;;;;;;;102.95;38.25;;;;;;;;;;4864411;29;20139;-46
2022/12/22 18:05:39;;;;;;;88.00;33.15;;;;;;;;;;4867782;29;20506;-45
2022/12/22 18:08:11;;;;;;;81.03;34.67;;;;;;;;;;4883269;29;20049;-47
2022/12/22 18:10:38;;;;;;;87.00;34.45;;;;;;;;;;4881152;29;20052;-46
2022/12/22 18:13:12;;;;;;;87.13;34.25;;;;;;;;;;4878687;29;20053;-47
2022/12/22 18:15:39;;;;;;;101.18;35.97;;;;;;;;;;4883721;29;20048;-50
2022/12/22 18:18:13;;;;;;;112.15;38.95;;;;;;;;;;4867303;29;20044;-48
2022/12/22 18:20:40;;;;;;;73.45;33.25;;;;;;;;;;4859476;29;20041;-48
2022/12/22 18:23:14;;;;;;;82.90;37.65;;;;;;;;;;4864503;29;20057;-47
2022/12/22 18:25:40;;;;;;;91.35;38.15;;;;;;;;;;4884614;29;20041;-47
2022/12/22 18:28:14;;;;;;;107.20;41.20;;;;;;;;;;4851813;29;20143;-49
2022/12/22 18:30:41;;;;;;;128.02;42.63;;;;;;;;;;4866955;29;20072;-47
2022/12/22 18:33:08;;;;;;;97.82;38.55;;;;;;;;;;4870060;29;20059;-46
2022/12/22 18:35:35;;;;;;;90.03;39.08;;;;;;;;;;4889808;29;20497;-48
2022/12/22 18:38:02;;;;;;;104.72;39.47;;;;;;;;;;4886628;29;20183;-48
2022/12/22 18:40:31;;;;;;;101.40;40.83;;;;;;;;;;4881429;29;20092;-46
2022/12/22 18:42:58;;;;;;;106.10;42.97;;;;;;;;;;4887727;29;20501;-47
2022/12/22 18:45:27;;;;;;;111.40;42.53;;;;;;;;;;4886464;29;20056;-46
2022/12/22 18:47:54;;;;;;;101.35;43.50;;;;;;;;;;4870510;29;20049;-47
2022/12/22 18:50:20;;;;;;;124.93;46.65;;;;;;;;;;4869119;29;20056;-46
2022/12/22 18:52:52;;;;;;;117.70;46.47;;;;;;;;;;4868482;29;20036;-47
2022/12/22 18:55:23;;;;;;;91.85;41.78;;;;;;;;;;4856236;29;20429;-47
2022/12/22 18:57:51;;;;;;;104.28;42.33;;;;;;;;;;4878729;29;20052;-47
2022/12/22 19:00:22;;;;;;;105.93;40.30;;;;;;;;;;4869558;29;20463;-45
2022/12/22 19:02:50;;;;;;;114.45;42.58;;;;;;;;;;4884867;29;20065;-48
2022/12/22 19:05:19;;;;;;;104.25;44.13;;;;;;;;;;4886853;29;20108;-50
2022/12/22 19:07:46;;;;;;;121.97;46.33;;;;;;;;;;4878929;29;20048;-47
2022/12/22 19:10:14;;;;;;;103.43;45.50;;;;;;;;;;4849404;29;20068;-49
2022/12/22 19:12:41;;;;;;;113.10;44.38;;;;;;;;;;4886429;29;20139;-50
2022/12/22 19:15:15;;;;;;;134.38;44.95;;;;;;;;;;4885934;29;20063;-47
2022/12/22 19:17:42;;;;;;;104.65;42.03;;;;;;;;;;4888273;29;20135;-47
2022/12/22 19:20:14;;;;;;;100.90;41.08;;;;;;;;;;4867583;29;20517;-47
2022/12/22 19:22:40;;;;;;;91.70;40.33;;;;;;;;;;4883957;29;20127;-47
2022/12/22 19:25:11;;;;;;;93.07;37.72;;;;;;;;;;4885833;29;20041;-47
2022/12/22 19:27:37;;;;;;;95.93;39.20;;;;;;;;;;4885431;29;20049;-47
2022/12/22 19:30:11;;;;;;;98.88;40.20;;;;;;;;;;4868291;29;20487;-47
2022/12/22 19:32:40;;;;;;;94.05;39.35;;;;;;;;;;4887081;29;20076;-49
2022/12/22 19:35:15;;;;;;;91.97;37.33;;;;;;;;;;4870148;29;20052;-49
2022/12/22 19:37:41;;;;;;;91.18;38.85;;;;;;;;;;4868166;29;20033;-46
2022/12/22 19:40:08;;;;;;;105.15;39.22;;;;;;;;;;4866206;29;20076;-45
2022/12/22 19:42:35;;;;;;;85.55;36.85;;;;;;;;;;4864765;29;20401;-46
2022/12/22 19:45:02;;;;;;;106.75;43.22;;;;;;;;;;4885875;29;20159;-46
2022/12/22 19:47:36;;;;;;;103.15;43.38;;;;;;;;;;4884404;29;20045;-45
2022/12/22 19:50:03;;;;;;;95.10;39.53;;;;;;;;;;4882956;29;20065;-48
2022/12/22 19:52:30;;;;;;;87.53;38.15;;;;;;;;;;4885910;29;20108;-46
2022/12/22 19:54:56;;;;;;;120.07;43.47;;;;;;;;;;4868230;29;20061;-46
2022/12/22 19:57:23;;;;;;;102.45;43.15;;;;;;;;;;4868200;29;20083;-45
2022/12/22 19:59:50;;;;;;;92.45;40.22;;;;;;;;;;4885417;29;20072;-50
2022/12/22 20:02:20;;;;;;;114.63;41.63;;;;;;;;;;4883460;29;20135;-47
2022/12/22 20:04:47;;;;;;;100.07;42.28;;;;;;;;;;4872100;29;20056;-46
2022/12/22 20:07:15;;;;;;;91.30;38.58;;;;;;;;;;4852489;29;20087;-47
2022/12/22 20:09:41;;;;;;;101.07;41.42;;;;;;;;;;4880270;29;20123;-46
2022/12/22 20:12:27;;;;;;;116.70;40.60;;;;;;;;;;4884838;29;20622;-48
2022/12/22 20:14:53;;;;;;;111.47;38.88;;;;;;;;;;4886031;29;20566;-47
2022/12/22 20:17:20;;;;;;;83.30;37.33;;;;;;;;;;4882646;29;20049;-46
2022/12/22 20:19:46;;;;;;;103.20;39.60;;;;;;;;;;4868349;29;20475;-47
2022/12/22 20:22:15;;;;;;;106.57;40.00;;;;;;;;;;4885070;29;20047;-45
2022/12/22 20:24:42;;;;;;;101.40;39.45;;;;;;;;;;4851590;29;20048;-46
2022/12/22 20:27:16;;;;;;;105.35;41.72;;;;;;;;;;4884144;29;20051;-47
2022/12/22 20:29:43;;;;;;;95.13;38.80;;;;;;;;;;4883969;29;20059;-48
2022/12/22 20:32:12;;;;;;;96.05;39.58;;;;;;;;;;4884393;29;20557;-45
2022/12/22 20:34:40;;;;;;;116.78;41.90;;;;;;;;;;4870536;29;20059;-49
2022/12/22 20:37:13;;;;;;;97.95;39.05;;;;;;;;;;4867354;29;20128;-49
2022/12/22 20:39:40;;;;;;;103.97;40.63;;;;;;;;;;4862320;29;20045;-47
2022/12/22 20:42:20;;;;;;;119.75;41.42;;;;;;;;;;4884557;29;20049;-46
2022/12/22 20:44:47;;;;;;;109.15;41.95;;;;;;;;;;4868769;29;20092;-47
2022/12/22 20:47:29;;;;;;;113.75;41.65;;;;;;;;;;4883508;29;20060;-48
2022/12/22 20:49:56;;;;;;;91.82;37.10;;;;;;;;;;4884341;29;20090;-46
2022/12/22 20:52:22;;;;;;;97.32;38.97;;;;;;;;;;4886823;29;20049;-50
2022/12/22 20:54:49;;;;;;;112.68;40.83;;;;;;;;;;4879653;29;20573;-48
2022/12/22 20:57:16;;;;;;;104.03;40.60;;;;;;;;;;4864223;29;20069;-48
2022/12/22 20:59:43;;;;;;;88.43;37.20;;;;;;;;;;4882272;29;20080;-46
2022/12/22 21:02:19;;;;;;;97.50;37.22;;;;;;;;;;4866239;29;20606;-47
2022/12/22 21:04:46;;;;;;;105.32;36.92;;;;;;;;;;4879912;29;20104;-46
2022/12/22 21:07:12;;;;;;;107.80;38.25;;;;;;;;;;4866119;29;20140;-47
2022/12/22 21:09:40;;;;;;;118.63;39.28;;;;;;;;;;4864430;29;20127;-45
2022/12/22 21:12:06;;;;;;;96.55;36.80;;;;;;;;;;4852812;29;20123;-48
2022/12/22 21:14:33;;;;;;;85.45;35.53;;;;;;;;;;4886149;29;20128;-45
2022/12/22 21:17:00;;;;;;;98.50;35.85;;;;;;;;;;4868083;29;20079;-47
2022/12/22 21:19:26;;;;;;;75.68;33.30;;;;;;;;;;4863957;29;20059;-45
2022/12/22 21:21:53;;;;;;;82.03;32.95;;;;;;;;;;4885337;29;20067;-49
2022/12/22 21:24:20;;;;;;;93.45;35.13;;;;;;;;;;4866275;29;20056;-49
2022/12/22 21:26:51;;;;;;;90.72;35.28;;;;;;;;;;4867831;29;20049;-46
2022/12/22 21:29:20;;;;;;;87.10;34.20;;;;;;;;;;4882320;29;20045;-46
2022/12/22 21:31:47;;;;;;;88.72;33.65;;;;;;;;;;4868458;29;20056;-50
2022/12/22 21:34:13;;;;;;;91.05;34.72;;;;;;;;;;4867169;29;20554;-50
2022/12/22 21:36:42;;;;;;;88.40;34.33;;;;;;;;;;4866753;29;20053;-47
2022/12/22 21:39:23;;;;;;;95.97;33.95;;;;;;;;;;4863642;29;20053;-47
2022/12/22 21:41:58;;;;;;;81.68;34.03;;;;;;;;;;4885256;29;20060;-48
2022/12/22 21:44:25;;;;;;;92.45;34.55;;;;;;;;;;4871098;29;20117;-47
2022/12/22 21:46:52;;;;;;;94.20;35.28;;;;;;;;;;4882363;29;20131;-49
2022/12/22 21:49:20;;;;;;;82.30;32.05;;;;;;;;;;4884845;29;20053;-47
2022/12/22 21:51:47;;;;;;;100.72;34.17;;;;;;;;;;4852569;29;20504;-47
2022/12/22 21:54:14;;;;;;;100.13;35.47;;;;;;;;;;4867264;29;20160;-46
2022/12/22 21:56:41;;;;;;;86.43;34.45;;;;;;;;;;4867574;29;20084;-48
2022/12/22 21:59:07;;;;;;;82.70;33.08;;;;;;;;;;4879030;29;20060;-47
2022/12/22 22:01:34;;;;;;;111.32;37.58;;;;;;;;;;4886065;29;20147;-46
2022/12/22 22:04:00;;;;;;;87.53;35.40;;;;;;;;;;4864319;29;20049;-46
2022/12/22 22:06:27;;;;;;;103.68;36.15;;;;;;;;;;4870260;29;20036;-48
2022/12/22 22:08:54;;;;;;;105.57;39.13;;;;;;;;;;4887042;29;20088;-47
2022/12/22 22:11:22;;;;;;;97.95;37.10;;;;;;;;;;4889437;29;20108;-47
2022/12/22 22:13:48;;;;;;;113.22;39.80;;;;;;;;;;4883823;29;20041;-45
2022/12/22 22:16:15;;;;;;;111.10;39.05;;;;;;;;;;4885052;29;20471;-45
2022/12/22 22:18:42;;;;;;;112.30;39.92;;;;;;;;;;4852421;29;20046;-49
2022/12/22 22:21:10;;;;;;;128.85;42.20;;;;;;;;;;4887025;29;20060;-46
2022/12/22 22:23:37;;;;;;;109.57;41.00;;;;;;;;;;4884593;29;20045;-51
2022/12/22 22:26:05;;;;;;;104.95;38.40;;;;;;;;;;4885902;29;20073;-47
2022/12/22 22:28:32;;;;;;;115.72;42.42;;;;;;;;;;4889662;29;20509;-49
2022/12/22 22:30:58;;;;;;;97.70;39.92;;;;;;;;;;4855156;29;20068;-46
2022/12/22 22:33:25;;;;;;;120.75;41.95;;;;;;;;;;4866099;29;20048;-45
2022/12/22 22:35:52;;;;;;;118.95;43.72;;;;;;;;;;4886555;29;20048;-46
2022/12/22 22:38:19;;;;;;;130.57;48.67;;;;;;;;;;4868043;29;20056;-46
2022/12/22 22:40:47;;;;;;;138.40;46.30;;;;;;;;;;4872225;29;20040;-46
2022/12/22 22:43:13;;;;;;;156.00;51.45;;;;;;;;;;4870154;29;20042;-47
2022/12/22 22:45:40;;;;;;;153.43;50.15;;;;;;;;;;4886840;29;20797;-48
2022/12/22 22:48:10;;;;;;;127.30;42.20;;;;;;;;;;4870010;29;20448;-47
2022/12/22 22:50:39;;;;;;;147.45;48.85;;;;;;;;;;4887411;29;20412;-46
2022/12/22 22:53:05;;;;;;;127.70;44.42;;;;;;;;;;4871045;29;20073;-46
2022/12/22 22:55:32;;;;;;;117.10;42.80;;;;;;;;;;4882838;29;20049;-47
2022/12/22 22:57:58;;;;;;;152.23;47.88;;;;;;;;;;4867049;29;20518;-45
2022/12/22 23:00:25;;;;;;;133.55;45.50;;;;;;;;;;4882283;29;20128;-45
2022/12/22 23:02:51;;;;;;;115.55;43.22;;;;;;;;;;4884998;29;20099;-46
2022/12/22 23:05:18;;;;;;;144.48;47.95;;;;;;;;;;4870413;29;20052;-50
2022/12/22 23:07:48;;;;;;;182.32;53.25;;;;;;;;;;4888303;29;20063;-48
2022/12/22 23:10:15;;;;;;;143.95;45.28;;;;;;;;;;4885973;29;20048;-45
2022/12/22 23:12:41;;;;;;;146.73;47.15;;;;;;;;;;4885720;29;20053;-45
2022/12/22 23:15:08;;;;;;;166.75;51.58;;;;;;;;;;4885290;29;20064;-46
2022/12/22 23:17:34;;;;;;;126.85;44.20;;;;;;;;;;4888216;29;20160;-48
2022/12/22 23:20:01;;;;;;;139.90;44.70;;;;;;;;;;4888584;29;20526;-45
2022/12/22 23:22:27;;;;;;;169.40;50.58;;;;;;;;;;4882635;29;20052;-46
2022/12/22 23:24:54;;;;;;;121.35;42.47;;;;;;;;;;4870079;29;20133;-48
2022/12/22 23:27:20;;;;;;;251.27;58.38;;;;;;;;;;4884902;29;20527;-50
2022/12/22 23:29:47;;;;;;;133.38;44.90;;;;;;;;;;4887156;29;20474;-48
2022/12/22 23:32:13;;;;;;;126.63;44.50;;;;;;;;;;4881992;29;20049;-45
2022/12/22 23:34:40;;;;;;;142.40;46.53;;;;;;;;;;4870593;29;20075;-47
2022/12/22 23:37:06;;;;;;;141.30;44.38;;;;;;;;;;4883268;29;20474;-47
2022/12/22 23:39:40;;;;;;;194.95;53.72;;;;;;;;;;4887858;29;20416;-47
2022/12/22 23:42:07;;;;;;;158.35;45.20;;;;;;;;;;4885703;29;20072;-48
2022/12/22 23:44:33;;;;;;;90.28;35.08;;;;;;;;;;4869337;29;20174;-51
2022/12/22 23:47:00;;;;;;;142.48;46.22;;;;;;;;;;4886643;29;20045;-45
2022/12/22 23:49:26;;;;;;;182.63;52.47;;;;;;;;;;4885314;29;20048;-45
2022/12/22 23:51:53;;;;;;;145.32;46.92;;;;;;;;;;4883282;29;20109;-47
2022/12/22 23:54:19;;;;;;;126.78;43.15;;;;;;;;;;4884475;29;20132;-47
2022/12/22 23:56:46;;;;;;;171.13;47.97;;;;;;;;;;4867797;29;20151;-45
2022/12/22 23:59:12;;;;;;;105.50;39.30;;;;;;;;;;4887577;29;20045;-50
